sensor_id;sensor_type;location;lat;lon;timestamp;temperature;humidity
15113;DHT22;7657;50.140;7.076;2023-06-01T00:00:51;18.30;99.90
15113;DHT22;7657;50.140;7.076;2023-06-01T00:03:21;18.30;99.90
15113;DHT22;7657;50.140;7.076;2023-06-01T00:05:50;18.20;99.90
15113;DHT22;7657;50.140;7.076;2023-06-01T00:08:17;18.20;99.90
15113;DHT22;7657;50.140;7.076;2023-06-01T00:10:44;18.20;99.90
15113;DHT22;7657;50.140;7.076;2023-06-01T00:13:12;18.10;99.90
15113;DHT22;7657;50.140;7.076;2023-06-01T00:15:39;18.10;99.90
15113;DHT22;7657;50.140;7.076;2023-06-01T00:18:06;18.10;99.90
15113;DHT22;7657;50.140;7.076;2023-06-01T00:20:34;18.10;99.90
15113;DHT22;7657;50.140;7.076;2023-06-01T00:23:01;18.10;99.90
15113;DHT22;7657;50.140;7.076;2023-06-01T00:25:29;18.10;99.90
15113;DHT22;7657;50.140;7.076;2023-06-01T00:27:56;18.10;99.90
15113;DHT22;7657;50.140;7.076;2023-06-01T00:30:24;18.10;99.90
15113;DHT22;7657;50.140;7.076;2023-06-01T00:32:51;18.10;99.90
15113;DHT22;7657;50.140;7.076;2023-06-01T00:35:17;18.00;99.90
15113;DHT22;7657;50.140;7.076;2023-06-01T00:37:44;18.00;99.90
15113;DHT22;7657;50.140;7.076;2023-06-01T00:40:11;18.00;99.90
15113;DHT22;7657;50.140;7.076;2023-06-01T00:42:38;17.90;99.90
15113;DHT22;7657;50.140;7.076;2023-06-01T00:45:06;17.90;99.90
15113;DHT22;7657;50.140;7.076;2023-06-01T00:47:39;17.90;99.90
15113;DHT22;7657;50.140;7.076;2023-06-01T00:50:07;17.90;99.90
15113;DHT22;7657;50.140;7.076;2023-06-01T00:52:36;17.90;99.90
15113;DHT22;7657;50.140;7.076;2023-06-01T00:55:04;17.90;99.90
15113;DHT22;7657;50.140;7.076;2023-06-01T00:57:32;17.90;99.90
15113;DHT22;7657;50.140;7.076;2023-06-01T01:00:02;17.90;99.90
15113;DHT22;7657;50.140;7.076;2023-06-01T01:02:36;17.90;99.90
15113;DHT22;7657;50.140;7.076;2023-06-01T01:05:05;17.90;99.90
15113;DHT22;7657;50.140;7.076;2023-06-01T01:07:42;17.90;99.90
15113;DHT22;7657;50.140;7.076;2023-06-01T01:10:19;17.80;99.90
15113;DHT22;7657;50.140;7.076;2023-06-01T01:12:54;17.70;99.90
15113;DHT22;7657;50.140;7.076;2023-06-01T01:15:27;17.80;99.90
15113;DHT22;7657;50.140;7.076;2023-06-01T01:18:03;17.70;99.90
15113;DHT22;7657;50.140;7.076;2023-06-01T01:20:36;17.70;99.90
15113;DHT22;7657;50.140;7.076;2023-06-01T01:23:14;17.70;99.90
15113;DHT22;7657;50.140;7.076;2023-06-01T01:26:24;17.60;99.90
15113;DHT22;7657;50.140;7.076;2023-06-01T01:28:58;17.60;99.90
15113;DHT22;7657;50.140;7.076;2023-06-01T01:31:26;17.60;99.90
15113;DHT22;7657;50.140;7.076;2023-06-01T01:33:56;17.50;99.90
15113;DHT22;7657;50.140;7.076;2023-06-01T01:36:23;17.50;99.90
15113;DHT22;7657;50.140;7.076;2023-06-01T01:38:50;17.40;99.90
15113;DHT22;7657;50.140;7.076;2023-06-01T01:41:18;17.40;99.90
15113;DHT22;7657;50.140;7.076;2023-06-01T01:43:46;17.40;99.90
15113;DHT22;7657;50.140;7.076;2023-06-01T01:46:22;17.20;99.90
15113;DHT22;7657;50.140;7.076;2023-06-01T01:48:54;17.20;99.90
15113;DHT22;7657;50.140;7.076;2023-06-01T01:51:29;17.10;99.90
15113;DHT22;7657;50.140;7.076;2023-06-01T01:54:04;17.10;99.90
15113;DHT22;7657;50.140;7.076;2023-06-01T01:56:32;17.00;99.90
15113;DHT22;7657;50.140;7.076;2023-06-01T01:59:01;17.00;99.90
15113;DHT22;7657;50.140;7.076;2023-06-01T02:01:30;17.00;99.90
15113;DHT22;7657;50.140;7.076;2023-06-01T02:04:00;17.00;99.90
15113;DHT22;7657;50.140;7.076;2023-06-01T02:06:27;17.00;99.90
15113;DHT22;7657;50.140;7.076;2023-06-01T02:08:53;17.00;99.90
15113;DHT22;7657;50.140;7.076;2023-06-01T02:11:20;17.00;99.90
15113;DHT22;7657;50.140;7.076;2023-06-01T02:13:47;17.00;99.90
15113;DHT22;7657;50.140;7.076;2023-06-01T02:16:14;16.90;99.90
15113;DHT22;7657;50.140;7.076;2023-06-01T02:18:44;16.90;99.90
15113;DHT22;7657;50.140;7.076;2023-06-01T02:21:12;17.00;99.90
15113;DHT22;7657;50.140;7.076;2023-06-01T02:23:39;16.90;99.90
15113;DHT22;7657;50.140;7.076;2023-06-01T02:26:06;16.90;99.90
15113;DHT22;7657;50.140;7.076;2023-06-01T02:28:47;16.90;99.90
15113;DHT22;7657;50.140;7.076;2023-06-01T02:31:14;16.80;99.90
15113;DHT22;7657;50.140;7.076;2023-06-01T02:33:41;16.80;99.90
15113;DHT22;7657;50.140;7.076;2023-06-01T02:36:09;16.90;99.90
15113;DHT22;7657;50.140;7.076;2023-06-01T02:38:36;16.90;99.90
15113;DHT22;7657;50.140;7.076;2023-06-01T02:41:03;16.80;99.90
15113;DHT22;7657;50.140;7.076;2023-06-01T02:43:33;16.90;99.90
15113;DHT22;7657;50.140;7.076;2023-06-01T02:46:00;16.80;99.90
15113;DHT22;7657;50.140;7.076;2023-06-01T02:48:27;16.90;99.90
15113;DHT22;7657;50.140;7.076;2023-06-01T02:50:54;16.80;99.90
15113;DHT22;7657;50.140;7.076;2023-06-01T02:53:23;16.80;99.90
15113;DHT22;7657;50.140;7.076;2023-06-01T02:55:52;16.80;99.90
15113;DHT22;7657;50.140;7.076;2023-06-01T02:58:19;16.80;99.90
15113;DHT22;7657;50.140;7.076;2023-06-01T03:00:46;16.70;99.90
15113;DHT22;7657;50.140;7.076;2023-06-01T03:03:13;16.60;99.90
15113;DHT22;7657;50.140;7.076;2023-06-01T03:05:40;16.50;99.90
15113;DHT22;7657;50.140;7.076;2023-06-01T03:08:08;16.50;99.90
15113;DHT22;7657;50.140;7.076;2023-06-01T03:10:37;16.50;99.90
15113;DHT22;7657;50.140;7.076;2023-06-01T03:13:04;16.50;99.90
15113;DHT22;7657;50.140;7.076;2023-06-01T03:15:31;16.50;99.90
15113;DHT22;7657;50.140;7.076;2023-06-01T03:17:58;16.60;99.90
15113;DHT22;7657;50.140;7.076;2023-06-01T03:20:26;16.50;99.90
15113;DHT22;7657;50.140;7.076;2023-06-01T03:22:53;16.50;99.90
15113;DHT22;7657;50.140;7.076;2023-06-01T03:25:20;16.40;99.90
15113;DHT22;7657;50.140;7.076;2023-06-01T03:27:49;16.40;99.90
15113;DHT22;7657;50.140;7.076;2023-06-01T03:30:16;16.40;99.90
15113;DHT22;7657;50.140;7.076;2023-06-01T03:32:44;16.30;99.90
15113;DHT22;7657;50.140;7.076;2023-06-01T03:35:12;16.30;99.90
15113;DHT22;7657;50.140;7.076;2023-06-01T03:37:40;16.30;99.90
15113;DHT22;7657;50.140;7.076;2023-06-01T03:40:08;16.30;99.90
15113;DHT22;7657;50.140;7.076;2023-06-01T03:42:53;16.30;99.90
15113;DHT22;7657;50.140;7.076;2023-06-01T03:45:20;16.30;99.90
15113;DHT22;7657;50.140;7.076;2023-06-01T03:47:47;16.30;99.90
15113;DHT22;7657;50.140;7.076;2023-06-01T03:50:14;16.30;99.90
15113;DHT22;7657;50.140;7.076;2023-06-01T03:52:41;16.20;99.90
15113;DHT22;7657;50.140;7.076;2023-06-01T03:55:09;16.20;99.90
15113;DHT22;7657;50.140;7.076;2023-06-01T03:57:39;16.30;99.90
15113;DHT22;7657;50.140;7.076;2023-06-01T04:00:08;16.20;99.90
15113;DHT22;7657;50.140;7.076;2023-06-01T04:02:47;16.20;99.90
15113;DHT22;7657;50.140;7.076;2023-06-01T04:05:15;16.10;99.90
15113;DHT22;7657;50.140;7.076;2023-06-01T04:07:44;16.20;99.90
15113;DHT22;7657;50.140;7.076;2023-06-01T04:10:11;16.20;99.90
15113;DHT22;7657;50.140;7.076;2023-06-01T04:12:40;16.20;99.90
15113;DHT22;7657;50.140;7.076;2023-06-01T04:15:12;16.20;99.90
15113;DHT22;7657;50.140;7.076;2023-06-01T04:17:39;16.20;99.90
15113;DHT22;7657;50.140;7.076;2023-06-01T04:20:09;16.30;99.90
15113;DHT22;7657;50.140;7.076;2023-06-01T04:22:36;16.30;99.90
15113;DHT22;7657;50.140;7.076;2023-06-01T04:25:05;16.30;99.90
15113;DHT22;7657;50.140;7.076;2023-06-01T04:27:33;16.30;99.90
15113;DHT22;7657;50.140;7.076;2023-06-01T04:30:03;16.30;99.90
15113;DHT22;7657;50.140;7.076;2023-06-01T04:32:34;16.40;99.90
15113;DHT22;7657;50.140;7.076;2023-06-01T04:35:04;16.50;99.90
15113;DHT22;7657;50.140;7.076;2023-06-01T04:37:32;16.50;99.90
15113;DHT22;7657;50.140;7.076;2023-06-01T04:39:59;16.50;99.90
15113;DHT22;7657;50.140;7.076;2023-06-01T04:42:26;16.50;99.90
15113;DHT22;7657;50.140;7.076;2023-06-01T04:44:55;16.50;99.90
15113;DHT22;7657;50.140;7.076;2023-06-01T04:47:24;16.60;99.90
15113;DHT22;7657;50.140;7.076;2023-06-01T04:49:52;16.60;99.90
15113;DHT22;7657;50.140;7.076;2023-06-01T04:52:19;16.60;99.90
15113;DHT22;7657;50.140;7.076;2023-06-01T04:54:46;16.70;99.90
15113;DHT22;7657;50.140;7.076;2023-06-01T04:57:13;16.70;99.90
15113;DHT22;7657;50.140;7.076;2023-06-01T04:59:40;16.80;99.90
15113;DHT22;7657;50.140;7.076;2023-06-01T05:02:07;16.80;99.90
15113;DHT22;7657;50.140;7.076;2023-06-01T05:04:34;16.80;99.90
15113;DHT22;7657;50.140;7.076;2023-06-01T05:07:03;16.90;99.90
15113;DHT22;7657;50.140;7.076;2023-06-01T05:09:31;16.80;99.90
15113;DHT22;7657;50.140;7.076;2023-06-01T05:11:58;16.80;99.90
15113;DHT22;7657;50.140;7.076;2023-06-01T05:14:25;16.80;99.90
15113;DHT22;7657;50.140;7.076;2023-06-01T05:16:52;16.90;99.90
15113;DHT22;7657;50.140;7.076;2023-06-01T05:19:18;16.90;99.90
15113;DHT22;7657;50.140;7.076;2023-06-01T05:21:46;16.90;99.90
15113;DHT22;7657;50.140;7.076;2023-06-01T05:24:15;17.00;99.90
15113;DHT22;7657;50.140;7.076;2023-06-01T05:26:42;16.90;99.90
15113;DHT22;7657;50.140;7.076;2023-06-01T05:29:08;17.00;99.90
15113;DHT22;7657;50.140;7.076;2023-06-01T05:31:35;17.00;99.90
15113;DHT22;7657;50.140;7.076;2023-06-01T05:34:02;17.10;99.90
15113;DHT22;7657;50.140;7.076;2023-06-01T05:36:29;17.00;99.90
15113;DHT22;7657;50.140;7.076;2023-06-01T05:38:57;17.00;99.90
15113;DHT22;7657;50.140;7.076;2023-06-01T05:41:25;17.00;99.90
15113;DHT22;7657;50.140;7.076;2023-06-01T05:43:52;17.00;99.90
15113;DHT22;7657;50.140;7.076;2023-06-01T05:46:20;17.10;99.90
15113;DHT22;7657;50.140;7.076;2023-06-01T05:48:47;17.10;99.90
15113;DHT22;7657;50.140;7.076;2023-06-01T05:51:13;17.00;99.90
15113;DHT22;7657;50.140;7.076;2023-06-01T05:53:41;17.10;99.90
15113;DHT22;7657;50.140;7.076;2023-06-01T05:56:08;17.10;99.90
15113;DHT22;7657;50.140;7.076;2023-06-01T05:58:36;17.10;99.90
15113;DHT22;7657;50.140;7.076;2023-06-01T06:01:03;17.10;99.90
15113;DHT22;7657;50.140;7.076;2023-06-01T06:03:30;17.10;99.90
15113;DHT22;7657;50.140;7.076;2023-06-01T06:05:57;17.20;99.90
15113;DHT22;7657;50.140;7.076;2023-06-01T06:08:24;17.20;99.90
15113;DHT22;7657;50.140;7.076;2023-06-01T06:10:51;17.20;99.90
15113;DHT22;7657;50.140;7.076;2023-06-01T06:13:18;17.20;99.90
15113;DHT22;7657;50.140;7.076;2023-06-01T06:15:46;17.20;99.90
15113;DHT22;7657;50.140;7.076;2023-06-01T06:18:13;17.20;99.90
15113;DHT22;7657;50.140;7.076;2023-06-01T06:20:40;17.20;99.90
15113;DHT22;7657;50.140;7.076;2023-06-01T06:23:07;17.30;99.90
15113;DHT22;7657;50.140;7.076;2023-06-01T06:25:34;17.30;99.90
15113;DHT22;7657;50.140;7.076;2023-06-01T06:28:02;17.30;99.90
15113;DHT22;7657;50.140;7.076;2023-06-01T06:30:29;17.40;99.90
15113;DHT22;7657;50.140;7.076;2023-06-01T06:32:58;17.40;99.90
15113;DHT22;7657;50.140;7.076;2023-06-01T06:35:24;17.40;99.90
15113;DHT22;7657;50.140;7.076;2023-06-01T06:37:51;17.40;99.90
15113;DHT22;7657;50.140;7.076;2023-06-01T06:40:18;17.40;99.90
15113;DHT22;7657;50.140;7.076;2023-06-01T06:42:45;17.40;99.90
15113;DHT22;7657;50.140;7.076;2023-06-01T06:45:13;17.50;99.90
15113;DHT22;7657;50.140;7.076;2023-06-01T06:47:40;17.60;99.90
15113;DHT22;7657;50.140;7.076;2023-06-01T06:50:09;17.60;99.90
15113;DHT22;7657;50.140;7.076;2023-06-01T06:52:37;17.60;99.90
15113;DHT22;7657;50.140;7.076;2023-06-01T06:55:04;17.70;99.90
15113;DHT22;7657;50.140;7.076;2023-06-01T06:57:32;17.70;99.90
15113;DHT22;7657;50.140;7.076;2023-06-01T06:59:59;17.80;99.90
15113;DHT22;7657;50.140;7.076;2023-06-01T07:02:30;17.80;99.90
15113;DHT22;7657;50.140;7.076;2023-06-01T07:04:57;17.80;99.90
15113;DHT22;7657;50.140;7.076;2023-06-01T07:07:26;17.80;99.90
15113;DHT22;7657;50.140;7.076;2023-06-01T07:09:52;17.90;99.90
15113;DHT22;7657;50.140;7.076;2023-06-01T07:12:19;17.90;99.90
15113;DHT22;7657;50.140;7.076;2023-06-01T07:14:46;17.90;99.90
15113;DHT22;7657;50.140;7.076;2023-06-01T07:17:13;18.00;99.90
15113;DHT22;7657;50.140;7.076;2023-06-01T07:19:40;17.90;99.90
15113;DHT22;7657;50.140;7.076;2023-06-01T07:22:07;18.00;99.90
15113;DHT22;7657;50.140;7.076;2023-06-01T07:24:35;18.00;99.90
15113;DHT22;7657;50.140;7.076;2023-06-01T07:27:03;18.00;99.90
15113;DHT22;7657;50.140;7.076;2023-06-01T07:29:31;18.00;99.90
15113;DHT22;7657;50.140;7.076;2023-06-01T07:31:58;18.00;99.90
15113;DHT22;7657;50.140;7.076;2023-06-01T07:34:24;18.00;99.90
15113;DHT22;7657;50.140;7.076;2023-06-01T07:36:52;18.00;99.90
15113;DHT22;7657;50.140;7.076;2023-06-01T07:39:20;18.00;99.90
15113;DHT22;7657;50.140;7.076;2023-06-01T07:41:48;18.10;99.90
15113;DHT22;7657;50.140;7.076;2023-06-01T07:44:18;18.10;99.90
15113;DHT22;7657;50.140;7.076;2023-06-01T07:46:46;18.10;99.90
15113;DHT22;7657;50.140;7.076;2023-06-01T07:49:13;18.10;99.90
15113;DHT22;7657;50.140;7.076;2023-06-01T07:51:41;18.20;99.90
15113;DHT22;7657;50.140;7.076;2023-06-01T07:54:08;18.30;99.90
15113;DHT22;7657;50.140;7.076;2023-06-01T07:56:35;18.30;99.90
15113;DHT22;7657;50.140;7.076;2023-06-01T07:59:03;18.30;99.90
15113;DHT22;7657;50.140;7.076;2023-06-01T08:01:30;18.30;99.90
15113;DHT22;7657;50.140;7.076;2023-06-01T08:03:58;18.40;99.90
15113;DHT22;7657;50.140;7.076;2023-06-01T08:06:25;18.40;99.90
15113;DHT22;7657;50.140;7.076;2023-06-01T08:08:52;18.50;99.90
15113;DHT22;7657;50.140;7.076;2023-06-01T08:11:19;18.50;99.90
15113;DHT22;7657;50.140;7.076;2023-06-01T08:13:47;18.50;99.90
15113;DHT22;7657;50.140;7.076;2023-06-01T08:16:15;18.60;99.90
15113;DHT22;7657;50.140;7.076;2023-06-01T08:18:42;18.60;99.90
15113;DHT22;7657;50.140;7.076;2023-06-01T08:21:09;18.60;99.90
15113;DHT22;7657;50.140;7.076;2023-06-01T08:23:36;18.60;99.90
15113;DHT22;7657;50.140;7.076;2023-06-01T08:26:04;18.60;99.90
15113;DHT22;7657;50.140;7.076;2023-06-01T08:28:31;18.70;99.90
15113;DHT22;7657;50.140;7.076;2023-06-01T08:30:58;18.70;99.90
15113;DHT22;7657;50.140;7.076;2023-06-01T08:33:26;18.70;99.90
15113;DHT22;7657;50.140;7.076;2023-06-01T08:35:53;18.70;99.90
15113;DHT22;7657;50.140;7.076;2023-06-01T08:38:20;18.80;99.90
15113;DHT22;7657;50.140;7.076;2023-06-01T08:40:47;18.80;99.90
15113;DHT22;7657;50.140;7.076;2023-06-01T08:43:18;18.80;99.90
15113;DHT22;7657;50.140;7.076;2023-06-01T08:45:45;18.80;99.90
15113;DHT22;7657;50.140;7.076;2023-06-01T08:48:16;18.90;99.90
15113;DHT22;7657;50.140;7.076;2023-06-01T08:50:47;18.90;99.90
15113;DHT22;7657;50.140;7.076;2023-06-01T08:53:15;18.90;99.90
15113;DHT22;7657;50.140;7.076;2023-06-01T08:55:44;18.90;99.90
15113;DHT22;7657;50.140;7.076;2023-06-01T08:58:12;19.00;99.90
15113;DHT22;7657;50.140;7.076;2023-06-01T09:00:40;19.00;99.90
15113;DHT22;7657;50.140;7.076;2023-06-01T09:03:07;19.10;99.90
15113;DHT22;7657;50.140;7.076;2023-06-01T09:05:35;19.10;99.90
15113;DHT22;7657;50.140;7.076;2023-06-01T09:08:04;19.10;99.90
15113;DHT22;7657;50.140;7.076;2023-06-01T09:10:31;19.10;99.90
15113;DHT22;7657;50.140;7.076;2023-06-01T09:12:58;19.10;99.90
15113;DHT22;7657;50.140;7.076;2023-06-01T09:15:26;19.10;99.90
15113;DHT22;7657;50.140;7.076;2023-06-01T09:18:05;19.10;99.90
15113;DHT22;7657;50.140;7.076;2023-06-01T09:20:32;19.20;99.90
15113;DHT22;7657;50.140;7.076;2023-06-01T09:22:59;19.20;99.90
15113;DHT22;7657;50.140;7.076;2023-06-01T09:25:28;19.20;99.90
15113;DHT22;7657;50.140;7.076;2023-06-01T09:27:58;19.30;99.90
15113;DHT22;7657;50.140;7.076;2023-06-01T09:30:37;19.30;99.90
15113;DHT22;7657;50.140;7.076;2023-06-01T09:33:09;19.30;99.90
15113;DHT22;7657;50.140;7.076;2023-06-01T09:35:42;19.30;99.90
15113;DHT22;7657;50.140;7.076;2023-06-01T09:38:09;19.40;99.90
15113;DHT22;7657;50.140;7.076;2023-06-01T09:40:39;19.40;99.90
15113;DHT22;7657;50.140;7.076;2023-06-01T09:43:19;19.40;99.90
15113;DHT22;7657;50.140;7.076;2023-06-01T09:46:03;19.50;99.90
15113;DHT22;7657;50.140;7.076;2023-06-01T09:48:31;19.50;99.90
15113;DHT22;7657;50.140;7.076;2023-06-01T09:50:58;19.50;99.90
15113;DHT22;7657;50.140;7.076;2023-06-01T09:53:25;19.50;99.90
15113;DHT22;7657;50.140;7.076;2023-06-01T09:56:00;19.50;99.90
15113;DHT22;7657;50.140;7.076;2023-06-01T09:58:28;19.60;99.90
15113;DHT22;7657;50.140;7.076;2023-06-01T10:00:55;19.60;99.90
15113;DHT22;7657;50.140;7.076;2023-06-01T10:03:27;19.70;99.90
15113;DHT22;7657;50.140;7.076;2023-06-01T10:05:54;19.70;99.90
15113;DHT22;7657;50.140;7.076;2023-06-01T10:08:22;19.70;99.90
15113;DHT22;7657;50.140;7.076;2023-06-01T10:10:49;19.70;99.90
15113;DHT22;7657;50.140;7.076;2023-06-01T10:13:18;19.80;99.90
15113;DHT22;7657;50.140;7.076;2023-06-01T10:15:47;19.80;99.90
15113;DHT22;7657;50.140;7.076;2023-06-01T10:18:15;19.80;99.90
15113;DHT22;7657;50.140;7.076;2023-06-01T10:20:43;19.90;99.90
15113;DHT22;7657;50.140;7.076;2023-06-01T10:23:10;19.90;99.90
15113;DHT22;7657;50.140;7.076;2023-06-01T10:25:39;20.00;99.90
15113;DHT22;7657;50.140;7.076;2023-06-01T10:28:10;20.00;99.90
15113;DHT22;7657;50.140;7.076;2023-06-01T10:30:39;20.00;99.90
15113;DHT22;7657;50.140;7.076;2023-06-01T10:33:06;20.00;99.90
15113;DHT22;7657;50.140;7.076;2023-06-01T10:36:01;20.10;99.90
15113;DHT22;7657;50.140;7.076;2023-06-01T10:38:31;20.10;99.90
15113;DHT22;7657;50.140;7.076;2023-06-01T10:41:29;20.20;99.90
15113;DHT22;7657;50.140;7.076;2023-06-01T10:43:57;20.20;99.90
15113;DHT22;7657;50.140;7.076;2023-06-01T10:46:36;20.20;99.90
15113;DHT22;7657;50.140;7.076;2023-06-01T10:49:04;20.30;99.90
15113;DHT22;7657;50.140;7.076;2023-06-01T10:51:31;20.30;99.90
15113;DHT22;7657;50.140;7.076;2023-06-01T10:54:31;20.40;99.90
15113;DHT22;7657;50.140;7.076;2023-06-01T10:57:21;20.40;99.90
15113;DHT22;7657;50.140;7.076;2023-06-01T11:00:10;20.40;99.90
15113;DHT22;7657;50.140;7.076;2023-06-01T11:02:54;20.40;99.90
15113;DHT22;7657;50.140;7.076;2023-06-01T11:05:42;20.40;99.90
15113;DHT22;7657;50.140;7.076;2023-06-01T11:11:15;20.50;99.90
15113;DHT22;7657;50.140;7.076;2023-06-01T11:13:42;20.50;99.90
15113;DHT22;7657;50.140;7.076;2023-06-01T11:16:31;20.50;99.90
15113;DHT22;7657;50.140;7.076;2023-06-01T11:19:01;20.60;99.90
15113;DHT22;7657;50.140;7.076;2023-06-01T11:21:30;20.60;99.90
15113;DHT22;7657;50.140;7.076;2023-06-01T11:24:00;20.70;99.90
15113;DHT22;7657;50.140;7.076;2023-06-01T11:26:31;20.70;99.90
15113;DHT22;7657;50.140;7.076;2023-06-01T11:29:23;20.70;99.90
15113;DHT22;7657;50.140;7.076;2023-06-01T11:31:53;20.70;99.90
15113;DHT22;7657;50.140;7.076;2023-06-01T11:34:31;20.80;99.90
15113;DHT22;7657;50.140;7.076;2023-06-01T11:36:58;20.80;99.90
15113;DHT22;7657;50.140;7.076;2023-06-01T11:39:26;20.90;99.90
15113;DHT22;7657;50.140;7.076;2023-06-01T11:42:04;20.90;99.90
15113;DHT22;7657;50.140;7.076;2023-06-01T11:44:36;20.90;99.90
15113;DHT22;7657;50.140;7.076;2023-06-01T11:47:03;21.00;99.90
15113;DHT22;7657;50.140;7.076;2023-06-01T11:49:40;21.00;99.90
15113;DHT22;7657;50.140;7.076;2023-06-01T11:52:09;21.00;99.90
15113;DHT22;7657;50.140;7.076;2023-06-01T11:54:36;21.10;99.90
15113;DHT22;7657;50.140;7.076;2023-06-01T11:57:04;21.10;99.90
15113;DHT22;7657;50.140;7.076;2023-06-01T11:59:36;21.20;99.90
15113;DHT22;7657;50.140;7.076;2023-06-01T12:02:16;21.30;99.90
15113;DHT22;7657;50.140;7.076;2023-06-01T12:04:55;21.30;99.90
15113;DHT22;7657;50.140;7.076;2023-06-01T12:07:23;21.30;99.90
15113;DHT22;7657;50.140;7.076;2023-06-01T12:09:51;21.30;99.90
15113;DHT22;7657;50.140;7.076;2023-06-01T12:12:19;21.40;99.90
15113;DHT22;7657;50.140;7.076;2023-06-01T12:14:48;21.50;99.90
15113;DHT22;7657;50.140;7.076;2023-06-01T12:17:15;21.50;99.90
15113;DHT22;7657;50.140;7.076;2023-06-01T12:19:45;21.60;99.90
15113;DHT22;7657;50.140;7.076;2023-06-01T12:22:15;21.70;99.90
15113;DHT22;7657;50.140;7.076;2023-06-01T12:24:43;21.70;99.90
15113;DHT22;7657;50.140;7.076;2023-06-01T12:27:14;21.80;99.90
15113;DHT22;7657;50.140;7.076;2023-06-01T12:29:43;21.90;99.90
15113;DHT22;7657;50.140;7.076;2023-06-01T12:32:11;22.00;99.90
15113;DHT22;7657;50.140;7.076;2023-06-01T12:34:39;22.00;99.90
15113;DHT22;7657;50.140;7.076;2023-06-01T12:37:14;22.10;99.90
15113;DHT22;7657;50.140;7.076;2023-06-01T12:39:41;22.20;99.90
15113;DHT22;7657;50.140;7.076;2023-06-01T12:42:09;22.20;99.90
15113;DHT22;7657;50.140;7.076;2023-06-01T12:44:37;22.40;99.90
15113;DHT22;7657;50.140;7.076;2023-06-01T12:47:05;22.60;98.90
15113;DHT22;7657;50.140;7.076;2023-06-01T12:49:33;22.80;99.90
15113;DHT22;7657;50.140;7.076;2023-06-01T12:52:00;23.00;99.90
15113;DHT22;7657;50.140;7.076;2023-06-01T12:54:29;23.20;99.90
15113;DHT22;7657;50.140;7.076;2023-06-01T12:56:56;23.40;99.60
15113;DHT22;7657;50.140;7.076;2023-06-01T12:59:23;23.60;97.20
15113;DHT22;7657;50.140;7.076;2023-06-01T13:01:50;23.80;92.40
15113;DHT22;7657;50.140;7.076;2023-06-01T13:04:17;24.00;91.30
15113;DHT22;7657;50.140;7.076;2023-06-01T13:06:43;24.10;68.30
15113;DHT22;7657;50.140;7.076;2023-06-01T13:09:11;24.20;67.30
15113;DHT22;7657;50.140;7.076;2023-06-01T13:11:41;24.40;63.80
15113;DHT22;7657;50.140;7.076;2023-06-01T13:14:07;24.60;67.30
15113;DHT22;7657;50.140;7.076;2023-06-01T13:16:35;24.70;64.30
15113;DHT22;7657;50.140;7.076;2023-06-01T13:19:01;24.80;57.20
15113;DHT22;7657;50.140;7.076;2023-06-01T13:21:30;25.00;58.90
15113;DHT22;7657;50.140;7.076;2023-06-01T13:23:58;25.20;56.20
15113;DHT22;7657;50.140;7.076;2023-06-01T13:26:25;25.20;51.40
15113;DHT22;7657;50.140;7.076;2023-06-01T13:28:53;25.30;55.80
15113;DHT22;7657;50.140;7.076;2023-06-01T13:31:20;25.50;55.40
15113;DHT22;7657;50.140;7.076;2023-06-01T13:33:48;25.60;54.30
15113;DHT22;7657;50.140;7.076;2023-06-01T13:36:15;25.70;55.30
15113;DHT22;7657;50.140;7.076;2023-06-01T13:38:42;25.90;59.10
15113;DHT22;7657;50.140;7.076;2023-06-01T13:41:09;26.00;57.20
15113;DHT22;7657;50.140;7.076;2023-06-01T13:43:36;25.90;54.20
15113;DHT22;7657;50.140;7.076;2023-06-01T13:46:06;26.00;50.50
15113;DHT22;7657;50.140;7.076;2023-06-01T13:48:35;26.20;47.90
15113;DHT22;7657;50.140;7.076;2023-06-01T13:51:02;26.10;46.20
15113;DHT22;7657;50.140;7.076;2023-06-01T13:53:30;26.20;47.30
15113;DHT22;7657;50.140;7.076;2023-06-01T13:55:56;26.40;44.70
15113;DHT22;7657;50.140;7.076;2023-06-01T13:58:23;26.40;43.70
15113;DHT22;7657;50.140;7.076;2023-06-01T14:00:50;26.60;44.30
15113;DHT22;7657;50.140;7.076;2023-06-01T14:03:19;26.80;43.30
15113;DHT22;7657;50.140;7.076;2023-06-01T14:05:46;26.90;43.40
15113;DHT22;7657;50.140;7.076;2023-06-01T14:08:12;27.00;46.90
15113;DHT22;7657;50.140;7.076;2023-06-01T14:10:39;27.10;48.10
15113;DHT22;7657;50.140;7.076;2023-06-01T14:13:06;27.00;46.20
15113;DHT22;7657;50.140;7.076;2023-06-01T14:15:33;27.10;46.80
15113;DHT22;7657;50.140;7.076;2023-06-01T14:18:00;27.30;47.10
15113;DHT22;7657;50.140;7.076;2023-06-01T14:20:28;27.40;47.30
15113;DHT22;7657;50.140;7.076;2023-06-01T14:22:56;27.50;48.20
15113;DHT22;7657;50.140;7.076;2023-06-01T14:25:23;27.50;45.30
15113;DHT22;7657;50.140;7.076;2023-06-01T14:27:50;27.70;43.40
15113;DHT22;7657;50.140;7.076;2023-06-01T14:30:17;27.60;42.70
15113;DHT22;7657;50.140;7.076;2023-06-01T14:32:44;27.90;48.80
15113;DHT22;7657;50.140;7.076;2023-06-01T14:35:11;28.10;49.70
15113;DHT22;7657;50.140;7.076;2023-06-01T14:37:43;28.20;49.40
15113;DHT22;7657;50.140;7.076;2023-06-01T14:40:10;28.70;48.90
15113;DHT22;7657;50.140;7.076;2023-06-01T14:42:37;28.80;51.50
15113;DHT22;7657;50.140;7.076;2023-06-01T14:45:05;28.50;48.20
15113;DHT22;7657;50.140;7.076;2023-06-01T14:47:33;28.90;50.50
15113;DHT22;7657;50.140;7.076;2023-06-01T14:50:00;28.80;50.10
15113;DHT22;7657;50.140;7.076;2023-06-01T14:52:27;29.20;52.00
15113;DHT22;7657;50.140;7.076;2023-06-01T14:54:55;29.10;49.50
15113;DHT22;7657;50.140;7.076;2023-06-01T14:57:22;29.60;48.70
15113;DHT22;7657;50.140;7.076;2023-06-01T14:59:49;29.50;46.30
15113;DHT22;7657;50.140;7.076;2023-06-01T15:02:16;29.60;45.90
15113;DHT22;7657;50.140;7.076;2023-06-01T15:04:43;29.70;45.30
15113;DHT22;7657;50.140;7.076;2023-06-01T15:07:11;29.70;44.70
15113;DHT22;7657;50.140;7.076;2023-06-01T15:09:38;29.80;44.00
15113;DHT22;7657;50.140;7.076;2023-06-01T15:12:07;30.20;44.40
15113;DHT22;7657;50.140;7.076;2023-06-01T15:14:34;30.40;43.20
15113;DHT22;7657;50.140;7.076;2023-06-01T15:17:00;30.50;43.40
15113;DHT22;7657;50.140;7.076;2023-06-01T15:19:27;30.30;41.10
15113;DHT22;7657;50.140;7.076;2023-06-01T15:21:54;30.30;41.70
15113;DHT22;7657;50.140;7.076;2023-06-01T15:24:21;30.70;41.00
15113;DHT22;7657;50.140;7.076;2023-06-01T15:26:48;30.60;40.40
15113;DHT22;7657;50.140;7.076;2023-06-01T15:29:16;30.90;41.50
15113;DHT22;7657;50.140;7.076;2023-06-01T15:31:44;31.10;41.50
15113;DHT22;7657;50.140;7.076;2023-06-01T15:34:10;31.20;41.70
15113;DHT22;7657;50.140;7.076;2023-06-01T15:36:38;30.80;41.30
15113;DHT22;7657;50.140;7.076;2023-06-01T15:39:05;30.70;41.60
15113;DHT22;7657;50.140;7.076;2023-06-01T15:41:32;31.20;41.50
15113;DHT22;7657;50.140;7.076;2023-06-01T15:43:59;31.20;40.00
15113;DHT22;7657;50.140;7.076;2023-06-01T15:46:27;31.40;40.90
15113;DHT22;7657;50.140;7.076;2023-06-01T15:48:54;31.40;40.90
15113;DHT22;7657;50.140;7.076;2023-06-01T15:51:21;31.50;40.60
15113;DHT22;7657;50.140;7.076;2023-06-01T15:53:49;31.50;40.40
15113;DHT22;7657;50.140;7.076;2023-06-01T15:56:17;31.70;39.60
15113;DHT22;7657;50.140;7.076;2023-06-01T15:58:44;31.40;38.50